sensor_id;sensor_type;location;lat;lon;timestamp;temperature;humidity
26964;DHT22;14521;48.148;-1.656;2022-07-29T00:01:56;24.60;78.70
26964;DHT22;14521;48.148;-1.656;2022-07-29T00:05:18;24.60;78.70
26964;DHT22;14521;48.148;-1.656;2022-07-29T00:08:41;24.60;78.80
26964;DHT22;14521;48.148;-1.656;2022-07-29T00:12:03;24.60;78.80
26964;DHT22;14521;48.148;-1.656;2022-07-29T00:15:26;24.60;78.90
26964;DHT22;14521;48.148;-1.656;2022-07-29T00:18:48;24.50;79.10
26964;DHT22;14521;48.148;-1.656;2022-07-29T00:22:11;24.50;79.40
26964;DHT22;14521;48.148;-1.656;2022-07-29T00:25:33;24.50;79.40
26964;DHT22;14521;48.148;-1.656;2022-07-29T00:28:55;24.50;79.30
26964;DHT22;14521;48.148;-1.656;2022-07-29T00:32:37;24.50;79.30
26964;DHT22;14521;48.148;-1.656;2022-07-29T00:36:00;24.50;79.40
26964;DHT22;14521;48.148;-1.656;2022-07-29T00:39:22;24.50;79.50
26964;DHT22;14521;48.148;-1.656;2022-07-29T00:42:46;24.50;79.40
26964;DHT22;14521;48.148;-1.656;2022-07-29T00:46:10;24.50;79.20
26964;DHT22;14521;48.148;-1.656;2022-07-29T00:49:32;24.60;79.20
26964;DHT22;14521;48.148;-1.656;2022-07-29T00:52:55;24.60;79.30
26964;DHT22;14521;48.148;-1.656;2022-07-29T00:56:18;24.60;79.20
26964;DHT22;14521;48.148;-1.656;2022-07-29T00:59:41;24.50;79.30
26964;DHT22;14521;48.148;-1.656;2022-07-29T01:03:03;24.50;79.20
26964;DHT22;14521;48.148;-1.656;2022-07-29T01:06:26;24.50;79.30
26964;DHT22;14521;48.148;-1.656;2022-07-29T01:09:49;24.50;79.50
26964;DHT22;14521;48.148;-1.656;2022-07-29T01:13:12;24.40;79.40
26964;DHT22;14521;48.148;-1.656;2022-07-29T01:17:00;24.40;79.50
26964;DHT22;14521;48.148;-1.656;2022-07-29T01:20:30;24.40;79.40
26964;DHT22;14521;48.148;-1.656;2022-07-29T01:31:47;24.40;79.40
26964;DHT22;14521;48.148;-1.656;2022-07-29T01:35:40;24.40;79.20
26964;DHT22;14521;48.148;-1.656;2022-07-29T01:39:40;24.40;79.20
26964;DHT22;14521;48.148;-1.656;2022-07-29T01:42:57;24.40;79.10
26964;DHT22;14521;48.148;-1.656;2022-07-29T01:46:30;24.40;79.00
26964;DHT22;14521;48.148;-1.656;2022-07-29T01:49:56;24.40;79.00
26964;DHT22;14521;48.148;-1.656;2022-07-29T01:53:31;24.40;78.90
26964;DHT22;14521;48.148;-1.656;2022-07-29T01:56:59;24.40;78.70
26964;DHT22;14521;48.148;-1.656;2022-07-29T02:00:23;24.40;78.60
26964;DHT22;14521;48.148;-1.656;2022-07-29T02:03:47;24.40;78.50
26964;DHT22;14521;48.148;-1.656;2022-07-29T02:07:13;24.40;78.00
26964;DHT22;14521;48.148;-1.656;2022-07-29T02:10:38;24.40;77.70
26964;DHT22;14521;48.148;-1.656;2022-07-29T02:14:03;24.40;77.40
26964;DHT22;14521;48.148;-1.656;2022-07-29T02:17:31;24.30;77.00
26964;DHT22;14521;48.148;-1.656;2022-07-29T02:20:56;24.40;76.90
26964;DHT22;14521;48.148;-1.656;2022-07-29T02:24:22;24.40;76.70
26964;DHT22;14521;48.148;-1.656;2022-07-29T02:27:46;24.40;76.60
26964;DHT22;14521;48.148;-1.656;2022-07-29T02:31:09;24.30;76.50
26964;DHT22;14521;48.148;-1.656;2022-07-29T02:34:33;24.30;76.30
26964;DHT22;14521;48.148;-1.656;2022-07-29T02:37:58;24.30;76.20
26964;DHT22;14521;48.148;-1.656;2022-07-29T02:41:47;24.30;76.20
26964;DHT22;14521;48.148;-1.656;2022-07-29T02:45:10;24.30;76.00
26964;DHT22;14521;48.148;-1.656;2022-07-29T02:48:37;24.30;75.80
26964;DHT22;14521;48.148;-1.656;2022-07-29T02:52:11;24.30;75.60
26964;DHT22;14521;48.148;-1.656;2022-07-29T02:55:40;24.40;76.10
26964;DHT22;14521;48.148;-1.656;2022-07-29T02:59:07;24.40;75.10
26964;DHT22;14521;48.148;-1.656;2022-07-29T03:02:34;24.40;75.00
26964;DHT22;14521;48.148;-1.656;2022-07-29T03:05:58;24.40;74.70
26964;DHT22;14521;48.148;-1.656;2022-07-29T03:09:22;24.40;74.40
26964;DHT22;14521;48.148;-1.656;2022-07-29T03:12:45;24.40;74.50
26964;DHT22;14521;48.148;-1.656;2022-07-29T03:16:08;24.30;75.20
26964;DHT22;14521;48.148;-1.656;2022-07-29T03:19:31;24.30;74.40
26964;DHT22;14521;48.148;-1.656;2022-07-29T03:22:54;24.30;74.80
26964;DHT22;14521;48.148;-1.656;2022-07-29T03:26:16;24.30;74.60
26964;DHT22;14521;48.148;-1.656;2022-07-29T03:29:38;24.20;74.90
26964;DHT22;14521;48.148;-1.656;2022-07-29T03:33:00;24.30;74.70
26964;DHT22;14521;48.148;-1.656;2022-07-29T03:36:23;24.30;74.50
26964;DHT22;14521;48.148;-1.656;2022-07-29T03:39:47;24.30;74.70
26964;DHT22;14521;48.148;-1.656;2022-07-29T03:43:13;24.30;75.70
26964;DHT22;14521;48.148;-1.656;2022-07-29T03:46:39;24.30;74.70
26964;DHT22;14521;48.148;-1.656;2022-07-29T03:50:05;24.40;75.60
26964;DHT22;14521;48.148;-1.656;2022-07-29T03:53:32;24.30;74.80
26964;DHT22;14521;48.148;-1.656;2022-07-29T03:56:56;24.30;75.00
26964;DHT22;14521;48.148;-1.656;2022-07-29T04:00:19;24.20;75.60
26964;DHT22;14521;48.148;-1.656;2022-07-29T04:03:41;24.20;75.60
26964;DHT22;14521;48.148;-1.656;2022-07-29T04:07:04;24.30;75.00
26964;DHT22;14521;48.148;-1.656;2022-07-29T04:10:27;24.30;75.10
26964;DHT22;14521;48.148;-1.656;2022-07-29T04:13:53;24.20;75.20
26964;DHT22;14521;48.148;-1.656;2022-07-29T04:17:15;24.20;75.40
26964;DHT22;14521;48.148;-1.656;2022-07-29T04:20:37;24.20;75.40
26964;DHT22;14521;48.148;-1.656;2022-07-29T04:23:59;24.20;75.40
26964;DHT22;14521;48.148;-1.656;2022-07-29T04:27:22;24.20;75.20
26964;DHT22;14521;48.148;-1.656;2022-07-29T04:30:44;24.30;75.30
26964;DHT22;14521;48.148;-1.656;2022-07-29T04:34:07;24.30;75.30
26964;DHT22;14521;48.148;-1.656;2022-07-29T04:37:29;24.30;76.00
26964;DHT22;14521;48.148;-1.656;2022-07-29T04:40:51;24.30;75.20
26964;DHT22;14521;48.148;-1.656;2022-07-29T04:44:15;24.20;75.30
26964;DHT22;14521;48.148;-1.656;2022-07-29T04:47:40;24.20;75.60
26964;DHT22;14521;48.148;-1.656;2022-07-29T04:51:03;24.10;75.70
26964;DHT22;14521;48.148;-1.656;2022-07-29T04:54:25;24.20;75.70
26964;DHT22;14521;48.148;-1.656;2022-07-29T04:57:48;24.20;75.70
26964;DHT22;14521;48.148;-1.656;2022-07-29T05:01:10;24.30;75.60
26964;DHT22;14521;48.148;-1.656;2022-07-29T05:04:32;24.40;75.50
26964;DHT22;14521;48.148;-1.656;2022-07-29T05:07:55;24.40;75.60
26964;DHT22;14521;48.148;-1.656;2022-07-29T05:11:17;24.30;75.60
26964;DHT22;14521;48.148;-1.656;2022-07-29T05:14:43;24.30;75.90
26964;DHT22;14521;48.148;-1.656;2022-07-29T05:18:05;24.30;75.90
26964;DHT22;14521;48.148;-1.656;2022-07-29T05:21:27;24.30;76.00
26964;DHT22;14521;48.148;-1.656;2022-07-29T05:24:50;24.20;76.20
26964;DHT22;14521;48.148;-1.656;2022-07-29T05:28:12;24.20;76.40
26964;DHT22;14521;48.148;-1.656;2022-07-29T05:31:34;24.20;76.60
26964;DHT22;14521;48.148;-1.656;2022-07-29T05:34:57;24.10;76.60
26964;DHT22;14521;48.148;-1.656;2022-07-29T05:38:19;24.10;76.60
26964;DHT22;14521;48.148;-1.656;2022-07-29T05:41:41;24.10;76.70
26964;DHT22;14521;48.148;-1.656;2022-07-29T05:45:04;24.20;76.70
26964;DHT22;14521;48.148;-1.656;2022-07-29T05:48:27;24.20;76.50
26964;DHT22;14521;48.148;-1.656;2022-07-29T05:51:49;24.30;76.30
26964;DHT22;14521;48.148;-1.656;2022-07-29T05:55:11;24.30;76.10
26964;DHT22;14521;48.148;-1.656;2022-07-29T05:58:33;24.40;75.60
26964;DHT22;14521;48.148;-1.656;2022-07-29T06:01:56;24.40;75.40
26964;DHT22;14521;48.148;-1.656;2022-07-29T06:05:21;24.40;75.50
26964;DHT22;14521;48.148;-1.656;2022-07-29T06:08:43;24.40;75.30
26964;DHT22;14521;48.148;-1.656;2022-07-29T06:12:06;24.40;75.20
26964;DHT22;14521;48.148;-1.656;2022-07-29T06:15:28;24.40;75.30
26964;DHT22;14521;48.148;-1.656;2022-07-29T06:18:50;24.40;75.10
26964;DHT22;14521;48.148;-1.656;2022-07-29T06:22:15;24.40;75.30
26964;DHT22;14521;48.148;-1.656;2022-07-29T06:25:40;24.40;74.90
26964;DHT22;14521;48.148;-1.656;2022-07-29T06:29:02;24.20;75.00
26964;DHT22;14521;48.148;-1.656;2022-07-29T06:32:24;24.00;76.00
26964;DHT22;14521;48.148;-1.656;2022-07-29T06:35:48;23.80;76.90
26964;DHT22;14521;48.148;-1.656;2022-07-29T06:39:16;23.80;77.00
26964;DHT22;14521;48.148;-1.656;2022-07-29T06:42:42;23.80;76.90
26964;DHT22;14521;48.148;-1.656;2022-07-29T06:46:08;23.90;77.70
26964;DHT22;14521;48.148;-1.656;2022-07-29T06:49:30;24.30;77.00
26964;DHT22;14521;48.148;-1.656;2022-07-29T06:52:53;24.60;76.60
26964;DHT22;14521;48.148;-1.656;2022-07-29T06:56:15;24.70;74.40
26964;DHT22;14521;48.148;-1.656;2022-07-29T06:59:37;24.90;75.40
26964;DHT22;14521;48.148;-1.656;2022-07-29T07:03:00;25.00;75.10
26964;DHT22;14521;48.148;-1.656;2022-07-29T07:06:23;25.10;74.10
26964;DHT22;14521;48.148;-1.656;2022-07-29T07:09:45;25.20;76.00
26964;DHT22;14521;48.148;-1.656;2022-07-29T07:13:07;25.30;75.40
26964;DHT22;14521;48.148;-1.656;2022-07-29T07:16:30;25.30;75.30
26964;DHT22;14521;48.148;-1.656;2022-07-29T07:19:53;25.30;75.90
26964;DHT22;14521;48.148;-1.656;2022-07-29T07:23:16;25.30;74.90
26964;DHT22;14521;48.148;-1.656;2022-07-29T07:26:38;25.40;74.10
26964;DHT22;14521;48.148;-1.656;2022-07-29T07:30:03;25.20;71.70
26964;DHT22;14521;48.148;-1.656;2022-07-29T07:33:27;25.00;73.00
26964;DHT22;14521;48.148;-1.656;2022-07-29T07:36:50;25.10;73.90
26964;DHT22;14521;48.148;-1.656;2022-07-29T07:40:13;25.10;71.00
26964;DHT22;14521;48.148;-1.656;2022-07-29T07:43:39;24.90;70.80
26964;DHT22;14521;48.148;-1.656;2022-07-29T07:47:02;24.90;70.80
26964;DHT22;14521;48.148;-1.656;2022-07-29T07:50:29;24.90;71.00
26964;DHT22;14521;48.148;-1.656;2022-07-29T07:53:52;25.00;71.80
26964;DHT22;14521;48.148;-1.656;2022-07-29T07:57:15;25.10;71.80
26964;DHT22;14521;48.148;-1.656;2022-07-29T08:00:37;25.10;71.70
26964;DHT22;14521;48.148;-1.656;2022-07-29T08:03:59;25.10;71.10
26964;DHT22;14521;48.148;-1.656;2022-07-29T08:07:22;25.20;71.10
26964;DHT22;14521;48.148;-1.656;2022-07-29T08:10:44;25.20;71.60
26964;DHT22;14521;48.148;-1.656;2022-07-29T08:14:15;25.20;71.50
26964;DHT22;14521;48.148;-1.656;2022-07-29T08:17:38;25.30;71.70
26964;DHT22;14521;48.148;-1.656;2022-07-29T08:21:00;25.40;72.10
26964;DHT22;14521;48.148;-1.656;2022-07-29T08:24:23;25.30;71.60
26964;DHT22;14521;48.148;-1.656;2022-07-29T08:28:03;25.30;71.40
26964;DHT22;14521;48.148;-1.656;2022-07-29T08:31:26;25.30;71.20
26964;DHT22;14521;48.148;-1.656;2022-07-29T08:34:48;25.30;71.50
26964;DHT22;14521;48.148;-1.656;2022-07-29T08:38:10;25.20;71.50
26964;DHT22;14521;48.148;-1.656;2022-07-29T08:41:33;25.30;71.40
26964;DHT22;14521;48.148;-1.656;2022-07-29T08:44:56;25.20;71.40
26964;DHT22;14521;48.148;-1.656;2022-07-29T08:48:22;25.20;71.80
26964;DHT22;14521;48.148;-1.656;2022-07-29T08:51:44;25.30;72.10
26964;DHT22;14521;48.148;-1.656;2022-07-29T08:55:10;25.40;73.10
26964;DHT22;14521;48.148;-1.656;2022-07-29T08:58:33;25.40;72.00
26964;DHT22;14521;48.148;-1.656;2022-07-29T09:01:58;25.40;72.40
26964;DHT22;14521;48.148;-1.656;2022-07-29T09:05:23;25.50;72.60
26964;DHT22;14521;48.148;-1.656;2022-07-29T09:08:46;25.50;73.20
26964;DHT22;14521;48.148;-1.656;2022-07-29T09:12:12;25.50;72.90
26964;DHT22;14521;48.148;-1.656;2022-07-29T09:15:50;25.50;74.00
26964;DHT22;14521;48.148;-1.656;2022-07-29T09:19:27;25.50;72.20
26964;DHT22;14521;48.148;-1.656;2022-07-29T09:22:51;25.50;72.10
26964;DHT22;14521;48.148;-1.656;2022-07-29T09:26:15;25.50;72.20
26964;DHT22;14521;48.148;-1.656;2022-07-29T09:29:38;25.50;72.10
26964;DHT22;14521;48.148;-1.656;2022-07-29T09:33:02;25.50;72.40
26964;DHT22;14521;48.148;-1.656;2022-07-29T09:36:25;25.60;73.50
26964;DHT22;14521;48.148;-1.656;2022-07-29T09:39:47;25.60;75.40
26964;DHT22;14521;48.148;-1.656;2022-07-29T09:43:11;25.70;72.90
26964;DHT22;14521;48.148;-1.656;2022-07-29T09:46:33;25.70;71.40
26964;DHT22;14521;48.148;-1.656;2022-07-29T09:49:58;25.70;72.70
26964;DHT22;14521;48.148;-1.656;2022-07-29T09:53:34;25.70;73.00
26964;DHT22;14521;48.148;-1.656;2022-07-29T09:56:57;25.70;72.80
26964;DHT22;14521;48.148;-1.656;2022-07-29T10:00:20;25.70;73.40
26964;DHT22;14521;48.148;-1.656;2022-07-29T10:03:52;25.80;73.30
26964;DHT22;14521;48.148;-1.656;2022-07-29T10:07:14;25.90;73.90
26964;DHT22;14521;48.148;-1.656;2022-07-29T10:10:42;25.90;72.60
26964;DHT22;14521;48.148;-1.656;2022-07-29T10:14:04;25.90;73.60
26964;DHT22;14521;48.148;-1.656;2022-07-29T10:17:28;25.90;74.00
26964;DHT22;14521;48.148;-1.656;2022-07-29T10:20:51;25.90;71.30
26964;DHT22;14521;48.148;-1.656;2022-07-29T10:24:13;25.90;70.80
26964;DHT22;14521;48.148;-1.656;2022-07-29T10:27:37;26.00;70.60
26964;DHT22;14521;48.148;-1.656;2022-07-29T10:31:02;26.00;71.90
26964;DHT22;14521;48.148;-1.656;2022-07-29T10:38:37;26.00;73.30
26964;DHT22;14521;48.148;-1.656;2022-07-29T10:45:33;26.00;74.10
26964;DHT22;14521;48.148;-1.656;2022-07-29T10:52:56;26.10;71.30
26964;DHT22;14521;48.148;-1.656;2022-07-29T10:56:31;26.10;71.20
26964;DHT22;14521;48.148;-1.656;2022-07-29T11:03:46;26.10;71.30
26964;DHT22;14521;48.148;-1.656;2022-07-29T11:07:11;26.10;71.20
26964;DHT22;14521;48.148;-1.656;2022-07-29T11:10:39;26.10;73.40
26964;DHT22;14521;48.148;-1.656;2022-07-29T11:14:02;26.00;71.40
26964;DHT22;14521;48.148;-1.656;2022-07-29T11:17:24;26.00;72.40
26964;DHT22;14521;48.148;-1.656;2022-07-29T11:20:49;26.00;72.10
26964;DHT22;14521;48.148;-1.656;2022-07-29T11:27:39;26.10;74.10
26964;DHT22;14521;48.148;-1.656;2022-07-29T11:31:02;26.10;73.50
26964;DHT22;14521;48.148;-1.656;2022-07-29T11:34:30;26.10;73.40
26964;DHT22;14521;48.148;-1.656;2022-07-29T11:38:24;26.20;73.20
26964;DHT22;14521;48.148;-1.656;2022-07-29T11:41:49;26.20;73.60
26964;DHT22;14521;48.148;-1.656;2022-07-29T11:45:14;26.20;73.10
26964;DHT22;14521;48.148;-1.656;2022-07-29T11:48:58;26.20;72.30
26964;DHT22;14521;48.148;-1.656;2022-07-29T11:52:22;26.20;72.50
26964;DHT22;14521;48.148;-1.656;2022-07-29T11:55:45;26.30;73.30
26964;DHT22;14521;48.148;-1.656;2022-07-29T11:59:13;26.30;73.80
26964;DHT22;14521;48.148;-1.656;2022-07-29T12:02:41;26.30;74.40
26964;DHT22;14521;48.148;-1.656;2022-07-29T12:06:13;26.40;72.10
26964;DHT22;14521;48.148;-1.656;2022-07-29T12:09:39;26.40;72.60
26964;DHT22;14521;48.148;-1.656;2022-07-29T12:12:42;26.40;71.60
26964;DHT22;14521;48.148;-1.656;2022-07-29T12:15:57;26.40;73.10
26964;DHT22;14521;48.148;-1.656;2022-07-29T12:19:03;26.40;74.10
26964;DHT22;14521;48.148;-1.656;2022-07-29T12:22:05;26.40;71.30
26964;DHT22;14521;48.148;-1.656;2022-07-29T12:28:39;26.40;73.00
26964;DHT22;14521;48.148;-1.656;2022-07-29T12:31:41;26.50;71.40
26964;DHT22;14521;48.148;-1.656;2022-07-29T12:34:46;26.50;73.50
26964;DHT22;14521;48.148;-1.656;2022-07-29T12:37:49;26.50;73.50
26964;DHT22;14521;48.148;-1.656;2022-07-29T12:40:53;26.50;73.70
26964;DHT22;14521;48.148;-1.656;2022-07-29T12:43:55;26.50;74.70
26964;DHT22;14521;48.148;-1.656;2022-07-29T12:47:02;26.50;74.60
26964;DHT22;14521;48.148;-1.656;2022-07-29T12:50:14;26.50;74.20
26964;DHT22;14521;48.148;-1.656;2022-07-29T12:53:24;26.50;75.80
26964;DHT22;14521;48.148;-1.656;2022-07-29T12:56:26;26.40;73.20
26964;DHT22;14521;48.148;-1.656;2022-07-29T12:59:43;26.40;73.40
26964;DHT22;14521;48.148;-1.656;2022-07-29T13:02:58;26.40;73.80
26964;DHT22;14521;48.148;-1.656;2022-07-29T13:06:01;26.30;74.00
26964;DHT22;14521;48.148;-1.656;2022-07-29T13:09:11;26.30;74.20
26964;DHT22;14521;48.148;-1.656;2022-07-29T13:12:13;26.30;74.20
26964;DHT22;14521;48.148;-1.656;2022-07-29T13:15:16;26.30;74.10
26964;DHT22;14521;48.148;-1.656;2022-07-29T13:18:33;26.30;73.90
26964;DHT22;14521;48.148;-1.656;2022-07-29T13:21:37;26.40;74.00
26964;DHT22;14521;48.148;-1.656;2022-07-29T13:25:05;26.30;74.20
26964;DHT22;14521;48.148;-1.656;2022-07-29T13:28:10;26.30;74.50
26964;DHT22;14521;48.148;-1.656;2022-07-29T13:31:13;26.30;74.60
26964;DHT22;14521;48.148;-1.656;2022-07-29T13:34:34;26.30;75.10
26964;DHT22;14521;48.148;-1.656;2022-07-29T13:37:56;26.30;75.10
26964;DHT22;14521;48.148;-1.656;2022-07-29T13:41:18;26.30;75.50
26964;DHT22;14521;48.148;-1.656;2022-07-29T13:44:41;26.30;75.10
26964;DHT22;14521;48.148;-1.656;2022-07-29T13:48:04;26.30;74.80
26964;DHT22;14521;48.148;-1.656;2022-07-29T13:51:26;26.30;74.70
26964;DHT22;14521;48.148;-1.656;2022-07-29T13:54:49;26.30;74.60
26964;DHT22;14521;48.148;-1.656;2022-07-29T13:58:11;26.30;74.50
26964;DHT22;14521;48.148;-1.656;2022-07-29T14:01:34;26.30;74.30
26964;DHT22;14521;48.148;-1.656;2022-07-29T14:04:57;26.30;74.60
26964;DHT22;14521;48.148;-1.656;2022-07-29T14:08:19;26.30;75.40
26964;DHT22;14521;48.148;-1.656;2022-07-29T14:11:42;26.30;74.30
26964;DHT22;14521;48.148;-1.656;2022-07-29T14:15:04;26.30;74.30
26964;DHT22;14521;48.148;-1.656;2022-07-29T14:18:27;26.30;74.20
26964;DHT22;14521;48.148;-1.656;2022-07-29T14:21:49;26.30;74.20
26964;DHT22;14521;48.148;-1.656;2022-07-29T14:25:12;26.30;74.30
26964;DHT22;14521;48.148;-1.656;2022-07-29T14:28:36;26.30;74.30
26964;DHT22;14521;48.148;-1.656;2022-07-29T14:32:03;26.30;74.10
26964;DHT22;14521;48.148;-1.656;2022-07-29T14:35:26;26.30;74.10
26964;DHT22;14521;48.148;-1.656;2022-07-29T14:38:48;26.30;74.00
26964;DHT22;14521;48.148;-1.656;2022-07-29T14:42:11;26.30;74.10
26964;DHT22;14521;48.148;-1.656;2022-07-29T14:45:35;26.30;74.10
26964;DHT22;14521;48.148;-1.656;2022-07-29T14:48:57;26.30;75.10
26964;DHT22;14521;48.148;-1.656;2022-07-29T14:52:19;26.40;75.30
26964;DHT22;14521;48.148;-1.656;2022-07-29T14:55:42;26.40;74.80
26964;DHT22;14521;48.148;-1.656;2022-07-29T14:59:04;26.40;74.40
26964;DHT22;14521;48.148;-1.656;2022-07-29T15:02:27;26.40;74.20
26964;DHT22;14521;48.148;-1.656;2022-07-29T15:06:09;26.40;75.10
26964;DHT22;14521;48.148;-1.656;2022-07-29T15:09:32;26.40;75.20
26964;DHT22;14521;48.148;-1.656;2022-07-29T15:13:01;26.40;74.60
26964;DHT22;14521;48.148;-1.656;2022-07-29T15:16:23;26.40;74.50
26964;DHT22;14521;48.148;-1.656;2022-07-29T15:19:46;26.40;74.50
26964;DHT22;14521;48.148;-1.656;2022-07-29T15:23:08;26.40;74.30
26964;DHT22;14521;48.148;-1.656;2022-07-29T15:26:31;26.40;74.50
26964;DHT22;14521;48.148;-1.656;2022-07-29T15:29:53;26.40;74.00
26964;DHT22;14521;48.148;-1.656;2022-07-29T15:33:15;26.40;74.20
26964;DHT22;14521;48.148;-1.656;2022-07-29T15:36:38;26.50;74.40
26964;DHT22;14521;48.148;-1.656;2022-07-29T15:40:13;26.50;74.40
26964;DHT22;14521;48.148;-1.656;2022-07-29T15:43:35;26.50;75.20
26964;DHT22;14521;48.148;-1.656;2022-07-29T15:46:58;26.40;74.90
26964;DHT22;14521;48.148;-1.656;2022-07-29T15:50:29;26.40;74.60
26964;DHT22;14521;48.148;-1.656;2022-07-29T15:53:52;26.40;74.20
26964;DHT22;14521;48.148;-1.656;2022-07-29T15:57:14;26.40;73.70
26964;DHT22;14521;48.148;-1.656;2022-07-29T16:00:37;26.40;74.50
26964;DHT22;14521;48.148;-1.656;2022-07-29T16:03:59;26.40;74.60
26964;DHT22;14521;48.148;-1.656;2022-07-29T16:07:21;26.40;74.40
26964;DHT22;14521;48.148;-1.656;2022-07-29T16:10:46;26.40;73.90
26964;DHT22;14521;48.148;-1.656;2022-07-29T16:14:09;26.40;74.40
26964;DHT22;14521;48.148;-1.656;2022-07-29T16:17:32;26.40;73.90
26964;DHT22;14521;48.148;-1.656;2022-07-29T16:20:55;26.50;74.70
26964;DHT22;14521;48.148;-1.656;2022-07-29T16:23:58;26.50;73.80
26964;DHT22;14521;48.148;-1.656;2022-07-29T16:27:01;26.50;74.20
26964;DHT22;14521;48.148;-1.656;2022-07-29T16:30:04;26.40;74.40
26964;DHT22;14521;48.148;-1.656;2022-07-29T16:33:06;26.50;73.60
26964;DHT22;14521;48.148;-1.656;2022-07-29T16:36:09;26.40;75.20
26964;DHT22;14521;48.148;-1.656;2022-07-29T16:39:13;26.50;75.80
26964;DHT22;14521;48.148;-1.656;2022-07-29T16:42:15;26.50;75.30
26964;DHT22;14521;48.148;-1.656;2022-07-29T16:45:37;26.50;75.50
26964;DHT22;14521;48.148;-1.656;2022-07-29T16:48:47;26.50;75.80
26964;DHT22;14521;48.148;-1.656;2022-07-29T16:51:49;26.50;75.70
26964;DHT22;14521;48.148;-1.656;2022-07-29T16:54:51;26.50;77.20
26964;DHT22;14521;48.148;-1.656;2022-07-29T16:57:53;26.50;76.70
26964;DHT22;14521;48.148;-1.656;2022-07-29T17:01:14;26.60;76.60
26964;DHT22;14521;48.148;-1.656;2022-07-29T17:04:38;26.60;77.00
26964;DHT22;14521;48.148;-1.656;2022-07-29T17:08:00;26.50;75.70
26964;DHT22;14521;48.148;-1.656;2022-07-29T17:11:22;26.50;76.00
26964;DHT22;14521;48.148;-1.656;2022-07-29T17:15:07;26.50;76.20
26964;DHT22;14521;48.148;-1.656;2022-07-29T17:18:29;26.50;76.80
26964;DHT22;14521;48.148;-1.656;2022-07-29T17:21:52;26.50;76.50
26964;DHT22;14521;48.148;-1.656;2022-07-29T17:25:24;26.50;76.80
26964;DHT22;14521;48.148;-1.656;2022-07-29T17:28:46;26.50;76.90
26964;DHT22;14521;48.148;-1.656;2022-07-29T17:32:10;26.50;76.80
26964;DHT22;14521;48.148;-1.656;2022-07-29T17:35:32;26.50;76.40
26964;DHT22;14521;48.148;-1.656;2022-07-29T17:39:13;26.60;76.40
26964;DHT22;14521;48.148;-1.656;2022-07-29T17:42:35;26.60;77.70
26964;DHT22;14521;48.148;-1.656;2022-07-29T17:45:58;26.60;78.00
26964;DHT22;14521;48.148;-1.656;2022-07-29T17:49:20;26.60;77.80
26964;DHT22;14521;48.148;-1.656;2022-07-29T17:52:43;26.60;76.60
26964;DHT22;14521;48.148;-1.656;2022-07-29T17:56:05;26.70;75.00
26964;DHT22;14521;48.148;-1.656;2022-07-29T17:59:27;26.80;76.10
26964;DHT22;14521;48.148;-1.656;2022-07-29T18:02:50;26.80;75.40
26964;DHT22;14521;48.148;-1.656;2022-07-29T18:06:12;26.80;75.50
26964;DHT22;14521;48.148;-1.656;2022-07-29T18:09:34;26.70;75.20
26964;DHT22;14521;48.148;-1.656;2022-07-29T18:12:57;26.70;77.20
26964;DHT22;14521;48.148;-1.656;2022-07-29T18:16:19;26.80;73.70
26964;DHT22;14521;48.148;-1.656;2022-07-29T18:19:41;26.80;72.40
26964;DHT22;14521;48.148;-1.656;2022-07-29T18:22:43;26.80;70.80
26964;DHT22;14521;48.148;-1.656;2022-07-29T18:25:45;26.80;68.40
26964;DHT22;14521;48.148;-1.656;2022-07-29T18:28:47;26.90;68.40
26964;DHT22;14521;48.148;-1.656;2022-07-29T18:31:49;26.90;69.20
26964;DHT22;14521;48.148;-1.656;2022-07-29T18:34:51;27.00;70.00
26964;DHT22;14521;48.148;-1.656;2022-07-29T18:37:53;27.00;69.40
26964;DHT22;14521;48.148;-1.656;2022-07-29T18:41:21;27.10;69.50
26964;DHT22;14521;48.148;-1.656;2022-07-29T18:44:43;27.00;69.90
26964;DHT22;14521;48.148;-1.656;2022-07-29T18:48:10;27.00;70.20
26964;DHT22;14521;48.148;-1.656;2022-07-29T18:51:34;26.90;69.70
26964;DHT22;14521;48.148;-1.656;2022-07-29T18:54:56;26.90;69.70
26964;DHT22;14521;48.148;-1.656;2022-07-29T18:58:18;26.80;68.80
26964;DHT22;14521;48.148;-1.656;2022-07-29T19:01:41;26.80;69.10
26964;DHT22;14521;48.148;-1.656;2022-07-29T19:05:08;26.70;67.70
26964;DHT22;14521;48.148;-1.656;2022-07-29T19:08:31;26.60;67.70
26964;DHT22;14521;48.148;-1.656;2022-07-29T19:11:53;26.60;67.20
26964;DHT22;14521;48.148;-1.656;2022-07-29T19:15:19;26.50;66.90
26964;DHT22;14521;48.148;-1.656;2022-07-29T19:18:41;26.90;66.60
26964;DHT22;14521;48.148;-1.656;2022-07-29T19:22:05;27.00;64.70
26964;DHT22;14521;48.148;-1.656;2022-07-29T19:25:27;26.80;64.40
26964;DHT22;14521;48.148;-1.656;2022-07-29T19:28:50;26.50;65.30
26964;DHT22;14521;48.148;-1.656;2022-07-29T19:32:13;26.40;65.80
26964;DHT22;14521;48.148;-1.656;2022-07-29T19:35:46;26.30;66.10
26964;DHT22;14521;48.148;-1.656;2022-07-29T19:39:15;26.10;66.70
26964;DHT22;14521;48.148;-1.656;2022-07-29T19:42:37;26.20;67.00
26964;DHT22;14521;48.148;-1.656;2022-07-29T19:46:00;26.10;67.30
26964;DHT22;14521;48.148;-1.656;2022-07-29T19:49:22;26.10;67.30
26964;DHT22;14521;48.148;-1.656;2022-07-29T19:52:45;26.20;67.20
26964;DHT22;14521;48.148;-1.656;2022-07-29T19:56:08;26.20;67.60
26964;DHT22;14521;48.148;-1.656;2022-07-29T19:59:30;26.10;67.10
26964;DHT22;14521;48.148;-1.656;2022-07-29T20:02:53;26.00;67.60
26964;DHT22;14521;48.148;-1.656;2022-07-29T20:06:15;25.90;68.20
26964;DHT22;14521;48.148;-1.656;2022-07-29T20:09:38;26.10;68.20
26964;DHT22;14521;48.148;-1.656;2022-07-29T20:13:01;26.10;67.80
26964;DHT22;14521;48.148;-1.656;2022-07-29T20:16:24;26.00;68.10
26964;DHT22;14521;48.148;-1.656;2022-07-29T20:19:47;25.90;68.50
26964;DHT22;14521;48.148;-1.656;2022-07-29T20:23:10;25.80;69.10
26964;DHT22;14521;48.148;-1.656;2022-07-29T20:26:32;25.80;69.20
26964;DHT22;14521;48.148;-1.656;2022-07-29T20:29:55;25.90;68.80
26964;DHT22;14521;48.148;-1.656;2022-07-29T20:33:17;25.80;68.70
26964;DHT22;14521;48.148;-1.656;2022-07-29T20:36:40;25.70;69.10
26964;DHT22;14521;48.148;-1.656;2022-07-29T20:40:03;25.60;69.30
26964;DHT22;14521;48.148;-1.656;2022-07-29T20:43:25;25.60;69.40
26964;DHT22;14521;48.148;-1.656;2022-07-29T20:46:48;25.60;69.40
26964;DHT22;14521;48.148;-1.656;2022-07-29T20:50:10;25.50;69.70
26964;DHT22;14521;48.148;-1.656;2022-07-29T20:53:33;25.50;70.20
26964;DHT22;14521;48.148;-1.656;2022-07-29T20:56:55;25.40;70.70
26964;DHT22;14521;48.148;-1.656;2022-07-29T21:00:17;25.50;70.60
26964;DHT22;14521;48.148;-1.656;2022-07-29T21:03:40;25.50;70.50
26964;DHT22;14521;48.148;-1.656;2022-07-29T21:07:03;25.70;70.40
26964;DHT22;14521;48.148;-1.656;2022-07-29T21:10:25;25.60;71.10
26964;DHT22;14521;48.148;-1.656;2022-07-29T21:13:49;25.50;71.40
26964;DHT22;14521;48.148;-1.656;2022-07-29T21:17:11;25.60;71.40
26964;DHT22;14521;48.148;-1.656;2022-07-29T21:20:33;25.50;71.60
26964;DHT22;14521;48.148;-1.656;2022-07-29T21:23:55;25.50;71.60
26964;DHT22;14521;48.148;-1.656;2022-07-29T21:27:18;25.60;71.90